Uega, Russia
Current Conditions -  °F | °C
As of 11:00 AM on Sunday 23 Nov 2014 (Local Time) from UHMM Reporting Station
Overcast Overcast  
Wind Chill:   Ceiling: 10000
Heat Index:   Visibility: 6mi
Dew Point:   Wind: 0mph
Humidity: 72%   Direction: NA
Pressure: 29.88"   Gusts: NA
Location:  60.73°N, 142.75°E
Report Text: UHMM 230100Z 00000MPS 9999 SCT037 OVC100 M14/M18 Q1012 NOSIGRMK QFE744 88950550
Loading
Personal Weather Stations






























Interactive Weather Map New forecast layout! Learn more

10-Day Weather Forecast

Advertisements
Track Severe Weather on mobile